Latest Weather Observations for Parawa West

IDS60801

Issued at 5:01 am CST Thursday 27 April 2017 (issued every 30 minutes, with the page automatically refreshed every 10 minutes)

About weather observations | Map of weather stations | Latest weather observations for SA | Other Formats
Station Details ID: 023875 Name: SECOND VALLEY FOREST AWS Lat: -35.57 Lon: 138.29 Height: 341.0 m
Data from the previous 72 hours. | See also: Recent months at Parawa West
Date/Time
CST
Temp
°C
App
Temp
°C
Dew
Point
°C
Rel
Hum
%
Delta-T
°C
Wind Press
QNH
hPa
Press
MSL
hPa
Rain since
9am
mm
Dir  Spd
km/h
Gust
km/h
Spd
kts
Gust
kts
27/05:00am 9.3 7.2 6.6 83 1.3 SW 7 11 4 6 1026.0 1025.6 -
27/04:30am 9.6 7.8 7.0 84 1.2 SW 6 11 3 6 1025.6 1025.2 -
27/04:00am 9.2 7.4 7.2 87 1.0 SW 6 9 3 5 1025.4 1025.0 -
27/03:30am 9.3 7.5 7.1 86 1.0 SW 6 9 3 5 1025.4 1025.0 -
27/03:00am 9.1 7.3 7.2 88 0.9 SW 6 7 3 4 1025.5 1025.1 0.0
27/02:30am 9.1 7.7 7.2 88 0.9 SSW 4 7 2 4 1025.7 1025.3 -
27/02:00am 9.7 7.2 6.6 81 1.5 SW 9 13 5 7 1025.9 1025.5 -
27/01:30am 10.0 6.7 6.2 77 1.8 SW 13 22 7 12 1025.9 1025.5 -
27/01:00am 10.1 7.5 6.1 76 1.9 SW 9 15 5 8 1025.8 1025.4 -
27/12:30am 9.8 7.1 5.6 75 1.9 SW 9 15 5 8 1025.5 1025.1 -
27/12:00am 10.3 7.2 5.7 73 2.1 SW 11 17 6 9 1025.4 1025.0 -
 
Date/Time
CST
Temp
°C
App
Temp
°C
Dew
Point
°C
Rel
Hum
%
Delta-T
°C
Wind Press
QNH
hPa
Press
MSL
hPa
Rain since
9am
mm
Dir  Spd
km/h
Gust
km/h
Spd
kts
Gust
kts
26/11:30pm 10.4 7.4 6.0 74 2.1 SW 11 19 6 10 1025.3 1024.9 -
26/11:00pm 10.1 7.8 5.9 75 2.0 SW 7 15 4 8 1025.3 1024.9 -
26/10:30pm 10.0 7.1 4.4 68 2.5 SW 9 13 5 7 1025.3 1024.9 -
26/10:00pm 10.3 7.1 3.3 62 3.1 SW 9 13 5 7 1025.3 1024.9 -
26/09:30pm 10.3 7.0 4.7 68 2.6 SW 11 17 6 9 1025.2 1024.8 -
26/09:00pm 10.2 7.1 5.4 72 2.2 SW 11 20 6 11 1024.9 1024.5 0.0
26/08:30pm 9.9 6.8 5.7 75 2.0 SSW 11 17 6 9 1024.9 1024.5 -
26/08:00pm 9.4 4.8 5.4 76 1.8 SW 19 33 10 18 1024.8 1024.4 -
26/07:30pm 9.8 5.6 5.6 75 1.9 SSW 17 22 9 12 1024.4 1024.0 -
26/07:00pm 9.8 6.5 4.8 71 2.3 SSW 11 19 6 10 1024.2 1023.8 -
26/06:30pm 9.8 5.6 3.8 66 2.7 SSW 15 24 8 13 1024.0 1023.6 -
26/06:00pm 9.6 5.1 4.2 69 2.4 SSW 17 24 9 13 1023.7 1023.2 -
26/05:30pm 10.0 6.0 5.0 71 2.3 SSW 15 22 8 12 1023.2 1022.8 -
26/05:00pm 10.4 6.3 4.3 66 2.8 SSW 15 22 8 12 1023.5 1023.0 -
26/04:30pm 10.3 6.0 5.3 71 2.3 S 17 28 9 15 1022.9 1022.5 -
26/04:00pm 10.5 5.4 4.2 65 2.9 SSW 20 32 11 17 1023.1 1022.7 -
26/03:30pm 10.6 5.3 4.9 68 2.6 S 22 30 12 16 1022.6 1022.2 -
26/03:00pm 10.7 5.4 4.8 67 2.7 S 22 30 12 16 1022.4 1022.0 -
26/02:30pm 11.3 5.9 4.7 64 3.0 SSW 22 30 12 16 1022.2 1021.8 -
26/02:00pm 10.7 4.5 6.1 73 2.2 S 28 39 15 21 1022.1 1021.7 -
26/01:30pm 11.2 4.4 5.3 67 2.7 S 30 41 16 22 1021.9 1021.5 -
26/01:00pm 10.9 3.9 6.8 76 2.0 S 33 43 18 23 1021.8 1021.4 -
26/12:30pm 10.6 3.2 4.9 68 2.6 S 33 46 18 25 1021.8 1021.4 -
26/12:00pm 10.7 4.4 5.5 70 2.4 SSW 28 39 15 21 1021.8 1021.4 -
26/11:30am 10.2 3.5 5.8 74 2.1 SSW 30 46 16 25 1021.8 1021.4 -
26/11:00am 10.9 4.7 6.3 73 2.2 S 28 44 15 24 1021.6 1021.2 -
26/10:54am 10.4 4.1 5.6 72 2.2 S 28 46 15 25 1021.6 1021.2 -
26/10:30am 10.1 3.9 6.1 76 1.9 SSW 28 37 15 20 1021.4 1021.0 -
26/10:03am 10.8 4.6 6.2 73 2.2 S 28 52 15 28 1021.0 1020.5 0.0
26/10:00am 10.6 4.2 5.2 69 2.5 S 28 39 15 21 1021.0 1020.5 0.0
26/09:34am 9.6 3.1 4.8 72 2.2 SSW 28 48 15 26 1020.7 1020.2 0.0
26/09:30am 9.4 3.4 5.2 75 1.9 SSW 26 39 14 21 1020.6 1020.1 0.0
26/09:00am 9.6 2.7 4.6 71 2.3 SSW 30 46 16 25 1020.2 1019.8 6.6
26/08:30am 9.7 2.1 3.0 63 2.9 SSW 32 48 17 26 1019.6 1019.2 6.6
26/08:26am 9.8 2.8 4.2 68 2.5 S 30 48 16 26 1019.6 1019.2 6.6
26/08:00am 9.2 1.8 4.0 70 2.3 SSW 32 44 17 24 1019.0 1018.6 6.6
26/07:41am 9.4 1.9 3.6 67 2.6 SSW 32 50 17 27 1018.5 1018.0 6.6
26/07:30am 9.0 2.6 3.4 68 2.5 SSW 26 39 14 21 1018.4 1017.9 6.6
26/07:00am 9.0 1.6 2.1 62 2.9 SSW 30 44 16 24 1018.0 1017.5 6.6
26/06:30am 8.8 1.7 3.6 70 2.3 SSW 30 44 16 24 1017.5 1017.0 6.6
26/06:10am 8.3 1.3 4.1 75 1.9 SSW 30 50 16 27 1017.1 1016.7 6.6
26/06:00am 7.9 2.3 5.4 84 1.1 SSW 24 39 13 21 1017.1 1016.7 6.6
26/05:41am 8.5 1.1 4.1 74 2.0 SSW 32 50 17 27 1016.7 1016.3 6.6
26/05:30am 8.5 0.5 3.8 72 2.1 SSW 35 50 19 27 1016.4 1016.0 6.6
26/05:00am 8.2 1.7 4.8 79 1.5 SSW 28 50 15 27 1015.9 1015.4 6.4
26/04:36am 8.7 1.6 3.5 70 2.3 SSW 30 57 16 31 1015.6 1015.1 6.4
26/04:30am 8.1 0.9 3.2 71 2.1 SSW 30 46 16 25 1015.5 1015.0 6.4
26/04:02am 8.5 0.9 2.7 67 2.5 SSW 32 52 17 28 1015.3 1014.8 6.2
26/04:00am 8.6 1.0 2.8 67 2.5 SSW 32 48 17 26 1015.2 1014.7 6.2
26/03:30am 7.3 0.1 4.8 84 1.1 SW 32 63 17 34 1015.0 1014.5 6.2
26/03:00am 8.9 1.5 4.1 72 2.1 SSW 32 50 17 27 1014.6 1014.1 6.0
26/02:30am 9.1 2.4 5.7 79 1.6 SW 30 56 16 30 1014.3 1013.8 6.0
26/02:29am 8.9 2.7 6.0 82 1.4 SW 28 56 15 30 1014.4 1013.9 6.0
26/02:00am 8.8 3.1 6.8 87 0.9 SW 26 43 14 23 1013.9 1013.5 5.8
26/01:38am 8.7 2.7 7.2 90 0.7 SW 28 57 15 31 1013.8 1013.4 5.6
26/01:30am 8.8 4.4 7.4 91 0.7 SW 20 35 11 19 1013.4 1012.9 5.6
26/01:05am 8.5 2.5 7.1 91 0.7 SW 28 46 15 25 1013.5 1013.0 5.6
26/01:00am 8.7 3.1 7.3 91 0.7 SW 26 46 14 25 1013.4 1012.9 5.6
26/12:44am 9.1 3.1 6.9 86 1.0 SW 28 67 15 36 1013.1 1012.6 5.6
26/12:30am 10.1 5.5 6.3 77 1.8 SW 20 33 11 18 1012.8 1012.3 5.4
26/12:00am 10.7 6.3 7.6 81 1.5 SW 20 46 11 25 1012.8 1012.3 5.4
 
Date/Time
CST
Temp
°C
App
Temp
°C
Dew
Point
°C
Rel
Hum
%
Delta-T
°C
Wind Press
QNH
hPa
Press
MSL
hPa
Rain since
9am
mm
Dir  Spd
km/h
Gust
km/h
Spd
kts
Gust
kts
25/11:30pm 10.8 5.2 7.3 79 1.7 SW 26 50 14 27 1012.7 1012.2 5.2
25/11:00pm 10.7 5.8 8.6 87 1.1 WSW 24 41 13 22 1012.6 1012.1 5.2
25/10:31pm 10.6 5.3 10.0 96 0.3 SW 28 52 15 28 1012.3 1011.8 5.2
25/10:30pm 10.5 5.2 9.9 96 0.3 SW 28 46 15 25 1012.4 1011.9 5.2
25/10:22pm 10.8 5.5 9.9 94 0.5 WSW 28 50 15 27 1012.2 1011.7 4.8
25/10:00pm 11.1 6.8 10.6 97 0.3 SW 24 43 13 23 1012.2 1011.7 4.6
25/09:30pm 11.5 8.1 10.7 95 0.4 W 19 28 10 15 1011.8 1011.3 2.8
25/09:00pm 12.6 8.2 10.3 86 1.2 W 24 37 13 20 1011.7 1011.2 2.6
25/08:30pm 12.4 9.0 10.5 88 1.0 W 19 35 10 19 1011.9 1011.4 2.6
25/08:00pm 11.7 8.7 9.1 84 1.3 WNW 15 22 8 12 1012.0 1011.5 2.6
25/07:30pm 11.8 9.0 8.6 81 1.6 WNW 13 20 7 11 1012.3 1011.8 2.6
25/07:00pm 11.7 8.2 8.6 81 1.6 W 17 28 9 15 1012.3 1011.8 2.6
25/06:30pm 12.2 8.3 10.8 91 0.7 W 22 35 12 19 1011.9 1011.4 2.6
25/06:00pm 12.5 10.7 12.2 98 0.2 WNW 13 19 7 10 1011.4 1010.9 2.6
25/05:30pm 12.4 11.0 12.1 98 0.2 W 11 17 6 9 1011.4 1010.9 2.6
25/05:00pm 12.2 10.7 11.9 98 0.2 W 11 17 6 9 1011.4 1010.9 2.4
25/04:30pm 12.4 10.2 12.1 98 0.2 WNW 15 22 8 12 1011.6 1011.1 2.2
25/04:00pm 12.6 11.2 12.1 97 0.3 W 11 15 6 8 1011.7 1011.2 1.8
25/03:30pm 12.5 10.7 12.2 98 0.2 W 13 20 7 11 1011.8 1011.3 1.8
25/03:00pm 12.8 9.3 12.3 97 0.3 WNW 22 37 12 20 1011.8 1011.3 1.0
25/02:30pm 13.4 9.5 12.1 92 0.7 W 24 39 13 21 1011.6 1011.1 0.0
25/02:00pm 14.9 10.6 12.0 83 1.6 WNW 26 37 14 20 1011.7 1011.2 0.0
25/01:30pm 15.3 12.2 11.7 79 2.0 WNW 19 30 10 16 1011.9 1011.4 0.0
25/01:00pm 16.3 13.1 11.2 72 2.8 WNW 19 28 10 15 1012.3 1011.8 0.0
25/12:30pm 15.8 12.5 10.8 72 2.7 W 19 28 10 15 1012.6 1012.1 0.0
25/12:00pm 15.7 12.9 11.3 75 2.4 W 17 26 9 14 1012.8 1012.3 0.0
25/11:30am 15.7 13.4 11.7 77 2.2 W 15 24 8 13 1013.2 1012.7 0.0
25/11:00am 15.5 12.0 12.3 81 1.8 W 22 30 12 16 1013.5 1013.0 0.0
25/10:30am 15.0 13.5 13.2 89 1.0 WSW 13 19 7 10 1013.7 1013.3 0.0
25/10:00am 15.0 13.2 13.2 89 1.0 WSW 15 24 8 13 1013.9 1013.5 0.0
25/09:30am 14.6 13.1 13.0 90 0.9 WSW 13 20 7 11 1013.9 1013.5 0.0
25/09:00am 14.6 13.2 13.3 92 0.7 WSW 13 20 7 11 1014.0 1013.6 5.0
25/08:30am 14.0 13.0 13.4 96 0.3 W 11 19 6 10 1013.8 1013.4 5.0
25/08:00am 14.0 13.1 13.7 98 0.2 W 11 17 6 9 1013.5 1013.0 5.0
25/07:30am 13.2 12.0 12.9 98 0.2 WSW 11 17 6 9 1013.1 1012.6 5.0
25/07:00am 12.9 11.6 12.6 98 0.2 WSW 11 17 6 9 1012.7 1012.2 4.8
25/06:30am 12.9 11.6 12.6 98 0.2 WSW 11 17 6 9 1012.6 1012.1 4.8
25/06:00am 13.0 11.8 12.8 99 0.1 WSW 11 15 6 8 1012.3 1011.8 4.8
25/05:30am 12.9 12.0 12.7 99 0.1 W 9 15 5 8 1012.2 1011.7 4.8
25/05:00am 12.7 11.8 12.5 99 0.1 W 9 13 5 7 1011.9 1011.4 4.8
25/04:30am 12.7 11.7 12.4 98 0.2 W 9 15 5 8 1011.7 1011.2 4.8
25/04:00am 12.8 11.5 12.6 99 0.1 W 11 13 6 7 1011.5 1011.0 4.8
25/03:30am 12.6 11.6 12.3 98 0.2 W 9 13 5 7 1011.3 1010.8 4.8
25/03:00am 12.9 12.4 12.7 99 0.1 WSW 7 13 4 7 1011.5 1011.0 4.8
25/02:30am 13.1 12.3 12.9 99 0.1 W 9 17 5 9 1011.7 1011.2 4.8
25/02:00am 12.8 11.1 12.6 99 0.1 WNW 13 19 7 10 1012.0 1011.5 4.8
25/01:30am 12.6 11.6 12.3 98 0.2 W 9 13 5 7 1012.1 1011.6 4.8
25/01:00am 13.0 11.8 12.8 99 0.1 WNW 11 15 6 8 1012.1 1011.6 4.8
25/12:30am 13.5 12.1 13.3 99 0.1 W 13 20 7 11 1012.3 1011.8 4.8
25/12:00am 13.9 11.5 13.9 100 0.0 W 19 24 10 13 1012.6 1012.1 4.8
 
Date/Time
CST
Temp
°C
App
Temp
°C
Dew
Point
°C
Rel
Hum
%
Delta-T
°C
Wind Press
QNH
hPa
Press
MSL
hPa
Rain since
9am
mm
Dir  Spd
km/h
Gust
km/h
Spd
kts
Gust
kts
24/11:30pm 14.5 13.1 14.5 100 0.0 W 15 20 8 11 1012.5 1012.0 4.8
24/11:00pm 14.7 13.4 14.7 100 0.0 W 15 20 8 11 1012.7 1012.2 4.8
24/10:30pm 14.7 13.7 14.7 100 0.0 W 13 19 7 10 1012.8 1012.3 4.8
24/10:00pm 14.9 14.4 14.9 100 0.0 W 11 17 6 9 1012.9 1012.4 4.8
24/09:30pm 15.3 15.3 15.3 100 0.0 WNW 9 13 5 7 1013.0 1012.5 4.8
24/09:00pm 15.5 16.0 15.5 100 0.0 NW 7 13 4 7 1013.1 1012.6 4.6
24/08:30pm 15.2 14.8 15.2 100 0.0 NNW 11 19 6 10 1013.2 1012.7 2.0
24/08:00pm 15.5 16.2 15.5 100 0.0 NW 6 11 3 6 1013.2 1012.7 2.0
24/07:30pm 15.5 15.5 15.3 99 0.1 NW 9 17 5 9 1013.4 1012.9 2.0
24/07:00pm 15.5 16.1 15.3 99 0.1 NW 6 11 3 6 1013.1 1012.6 1.8
24/06:30pm 15.4 15.7 15.1 98 0.2 NW 7 11 4 6 1013.3 1012.8 0.6
24/06:00pm 15.5 15.5 15.2 98 0.2 W 9 15 5 8 1013.2 1012.7 0.6
24/05:30pm 15.5 14.6 14.9 96 0.4 W 13 19 7 10 1013.1 1012.6 0.4
24/05:00pm 15.8 14.3 15.2 96 0.4 WNW 17 32 9 17 1013.1 1012.6 0.4
24/04:30pm 16.5 15.0 16.2 98 0.2 NW 19 32 10 17 1012.9 1012.4 0.2
24/04:00pm 16.3 14.2 16.1 99 0.1 NW 22 39 12 21 1012.9 1012.4 0.2
24/03:30pm 16.4 13.5 16.2 99 0.1 NW 26 41 14 22 1013.0 1012.5 0.2
24/03:00pm 16.6 15.0 16.4 99 0.1 NW 20 35 11 19 1012.9 1012.4 0.2
24/02:30pm 16.3 16.2 16.0 98 0.2 NNW 11 20 6 11 1013.2 1012.7 0.2
24/02:00pm 16.4 16.7 15.9 97 0.3 NNW 9 15 5 8 1013.6 1013.1 0.2
24/01:30pm 16.6 16.8 15.8 95 0.5 NW 9 19 5 10 1013.9 1013.5 0.2
24/01:00pm 17.2 18.5 16.1 93 0.7 NNW 4 9 2 5 1014.2 1013.7 0.2
24/12:30pm 17.2 16.9 15.5 90 1.0 NW 11 19 6 10 1015.1 1014.6 0.2
24/12:00pm 17.3 17.6 15.1 87 1.3 NNW 7 15 4 8 1015.8 1015.3 0.2
24/11:30am 17.6 17.1 14.9 84 1.6 NNW 11 19 6 10 1016.3 1015.9 0.0
24/11:00am 17.8 18.4 15.4 86 1.4 NNW 6 11 3 6 1016.6 1016.2 0.0
24/10:30am 16.8 18.3 15.7 93 0.7 NNW 2 6 1 3 1016.8 1016.4 0.0
24/10:00am 16.4 17.8 15.4 94 0.6 NNE 2 4 1 2 1017.0 1016.6 0.0
24/09:30am 16.1 17.8 15.3 95 0.5 CALM 0 2 0 1 1017.6 1017.1 0.0
24/09:00am 15.2 15.6 14.7 97 0.3 NNE 6 9 3 5 1017.7 1017.2 6.8
24/08:30am 15.0 15.1 14.5 97 0.3 NNE 7 11 4 6 1017.8 1017.3 6.8
24/08:00am 14.5 14.7 14.3 99 0.1 NNE 6 9 3 5 1017.8 1017.3 6.8
24/07:30am 14.1 13.6 13.9 99 0.1 NNE 9 15 5 8 1017.8 1017.3 6.8
24/07:00am 14.4 14.0 14.2 99 0.1 NNE 9 15 5 8 1017.8 1017.3 6.8
24/06:30am 14.4 13.7 14.2 99 0.1 NE 11 19 6 10 1017.7 1017.2 6.8
24/06:00am 14.4 13.3 14.2 99 0.1 ENE 13 19 7 10 1017.8 1017.3 6.8
24/05:30am 14.4 12.1 14.2 99 0.1 NE 19 26 10 14 1018.0 1017.5 6.8

Other Formats:

Comma delimited format used in spreadsheet applications
http://www.bom.gov.au/fwo/IDS60801/IDS60801.94811.axf

JavaScript Object Notation format (JSON) in row-major order
http://www.bom.gov.au/fwo/IDS60801/IDS60801.94811.json